Time;durP1;ratioP1;P1;durP2;ratioP2;P2;SDS_P1;SDS_P2;PMS_P1;PMS_P2;Temp;Humidity;BMP_temperature;BMP_pressure;BME280_temperature;BME280_humidity;BME280_pressure;Samples;Min_cycle;Max_cycle;Signal;HPM_P1;HPM_P2
2021/03/09 00:00:49;;;;;;;16.60;7.47;;;5.20;99.90;;;;;;4972028;28;20314;-86
2021/03/09 00:03:15;;;;;;;10.40;6.33;;;5.20;99.90;;;;;;4960484;28;20199;-86
2021/03/09 00:05:41;;;;;;;8.43;7.10;;;5.20;99.90;;;;;;4962810;28;20740;-87
2021/03/09 00:08:07;;;;;;;9.17;6.27;;;5.20;99.90;;;;;;4956751;28;20245;-87
2021/03/09 00:10:33;;;;;;;17.33;5.33;;;5.20;99.90;;;;;;5000454;28;20227;-86
2021/03/09 00:12:58;;;;;;;14.77;9.83;;;5.20;99.90;;;;;;4978658;28;20219;-86
2021/03/09 00:15:24;;;;;;;11.23;7.00;;;5.20;99.90;;;;;;4975508;28;20219;-86
2021/03/09 00:17:50;;;;;;;10.17;5.90;;;5.20;99.90;;;;;;4978341;28;20180;-85
2021/03/09 00:20:16;;;;;;;11.70;6.93;;;5.20;99.90;;;;;;4959771;28;20220;-86
2021/03/09 00:22:42;;;;;;;12.77;8.50;;;5.20;99.90;;;;;;4980058;28;20265;-86
2021/03/09 00:25:08;;;;;;;9.10;7.37;;;5.20;99.90;;;;;;4965972;28;20218;-86
2021/03/09 00:27:34;;;;;;;13.47;7.70;;;5.20;99.90;;;;;;4994263;28;20188;-87
2021/03/09 00:30:00;;;;;;;7.83;6.27;;;5.30;99.90;;;;;;4977040;28;20234;-86
2021/03/09 00:32:25;;;;;;;7.20;6.50;;;5.20;99.90;;;;;;5002593;28;20265;-87
2021/03/09 00:34:51;;;;;;;6.80;4.77;;;5.20;99.90;;;;;;4950283;28;20243;-87
2021/03/09 00:37:17;;;;;;;7.47;6.37;;;5.20;99.90;;;;;;4956783;28;20219;-86
2021/03/09 00:39:43;;;;;;;12.70;8.30;;;5.30;99.90;;;;;;4975594;28;20227;-87
2021/03/09 00:42:09;;;;;;;11.50;7.23;;;5.30;99.90;;;;;;4983278;28;20191;-87
2021/03/09 00:44:34;;;;;;;13.63;7.33;;;5.30;99.90;;;;;;4958362;28;20294;-86
2021/03/09 00:47:00;;;;;;;9.50;6.37;;;5.30;99.90;;;;;;4938881;28;20276;-86
2021/03/09 00:49:26;;;;;;;13.23;7.03;;;5.30;99.90;;;;;;4958527;28;20220;-86
2021/03/09 00:51:51;;;;;;;8.93;5.87;;;5.30;99.90;;;;;;4952557;28;20315;-86
2021/03/09 00:54:18;;;;;;;16.60;6.00;;;5.30;99.90;;;;;;5002538;28;20191;-85
2021/03/09 00:56:44;;;;;;;12.37;8.07;;;5.30;99.90;;;;;;5001145;28;20708;-86
2021/03/09 00:59:09;;;;;;;11.60;7.83;;;5.40;99.90;;;;;;4977923;28;20215;-86
2021/03/09 01:01:35;;;;;;;12.40;8.43;;;5.40;99.90;;;;;;4959935;28;20234;-86
2021/03/09 01:04:01;;;;;;;19.80;9.60;;;5.40;99.90;;;;;;4990157;28;20293;-86
2021/03/09 01:06:27;;;;;;;12.93;7.30;;;5.30;99.90;;;;;;4997408;28;20684;-86
2021/03/09 01:08:53;;;;;;;13.43;8.00;;;5.40;99.90;;;;;;4978958;28;20204;-85
2021/03/09 01:11:19;;;;;;;13.30;7.27;;;5.40;99.90;;;;;;5001430;28;20219;-87
2021/03/09 01:13:45;;;;;;;9.17;7.60;;;5.40;99.90;;;;;;4995222;28;20208;-86
2021/03/09 01:16:11;;;;;;;12.67;7.37;;;5.40;99.90;;;;;;4962942;28;20298;-85
2021/03/09 01:18:37;;;;;;;15.17;9.00;;;5.40;99.90;;;;;;4999016;28;20211;-86
2021/03/09 01:21:03;;;;;;;13.20;7.93;;;5.40;99.90;;;;;;4977192;28;20192;-86
2021/03/09 01:23:29;;;;;;;13.20;7.00;;;5.50;99.90;;;;;;4997575;28;20410;-85
2021/03/09 01:25:55;;;;;;;8.53;7.53;;;5.50;99.90;;;;;;4983371;28;20315;-86
2021/03/09 01:28:21;;;;;;;10.83;8.73;;;5.50;99.90;;;;;;4958294;28;20243;-86
2021/03/09 01:30:47;;;;;;;10.90;7.93;;;5.50;99.90;;;;;;4991906;28;20219;-86
2021/03/09 01:33:13;;;;;;;8.17;6.77;;;5.50;99.90;;;;;;5000337;28;20187;-86
2021/03/09 01:35:39;;;;;;;10.53;7.23;;;5.50;99.90;;;;;;5000248;28;20255;-86
2021/03/09 01:38:05;;;;;;;9.93;8.13;;;5.60;99.90;;;;;;4995502;28;20289;-87
2021/03/09 01:40:32;;;;;;;15.47;7.77;;;5.50;99.90;;;;;;4998493;28;20243;-87
2021/03/09 01:42:58;;;;;;;21.60;8.93;;;5.50;99.90;;;;;;4956926;28;20239;-87
2021/03/09 01:45:24;;;;;;;12.70;8.50;;;5.50;99.90;;;;;;4964181;28;20196;-87
2021/03/09 01:47:50;;;;;;;12.20;9.47;;;5.60;99.90;;;;;;4983799;28;20191;-87
2021/03/09 01:50:18;;;;;;;12.10;6.70;;;5.60;99.90;;;;;;4981307;28;21217;-87
2021/03/09 01:52:46;;;;;;;15.60;8.87;;;5.60;99.90;;;;;;4975061;28;20236;-87
2021/03/09 01:55:13;;;;;;;14.17;7.30;;;5.60;99.90;;;;;;4976281;28;20273;-87
2021/03/09 01:57:40;;;;;;;9.83;8.73;;;5.60;99.90;;;;;;4937776;28;20231;-86
2021/03/09 02:00:09;;;;;;;14.27;8.27;;;5.60;99.90;;;;;;4972302;28;20721;-87
2021/03/09 02:02:35;;;;;;;12.47;9.23;;;5.60;99.90;;;;;;4936521;28;20229;-86
2021/03/09 02:05:04;;;;;;;14.60;8.10;;;5.70;99.90;;;;;;4950324;28;20604;-86
2021/03/09 02:07:30;;;;;;;13.20;8.60;;;5.70;99.90;;;;;;4957144;28;20630;-86
2021/03/09 02:09:56;;;;;;;13.23;7.03;;;5.70;99.90;;;;;;4956989;28;21171;-85
2021/03/09 02:12:28;;;;;;;10.50;7.60;;;5.70;99.90;;;;;;4954687;28;20239;-86
2021/03/09 02:15:12;;;;;;;10.90;8.00;;;5.70;99.90;;;;;;4972655;28;21226;-86
2021/03/09 02:17:48;;;;;;;10.80;8.40;;;5.70;99.90;;;;;;4970732;28;20228;-86
2021/03/09 02:20:39;;;;;;;17.20;8.60;;;5.70;99.90;;;;;;4971708;28;20249;-86
2021/03/09 02:23:58;;;;;;;18.93;11.47;;;5.80;99.90;;;;;;4945111;28;20241;-86
2021/03/09 02:26:43;;;;;;;12.43;6.60;;;5.80;99.90;;;;;;4876666;29;20234;-85
2021/03/09 02:29:29;;;;;;;16.50;9.27;;;5.80;99.90;;;;;;4976971;28;20254;-85
2021/03/09 02:31:56;;;;;;;14.20;8.17;;;5.80;99.90;;;;;;4990975;28;20261;-85
2021/03/09 02:34:36;;;;;;;14.57;9.90;;;5.80;99.90;;;;;;4974025;28;20435;-87
2021/03/09 02:37:06;;;;;;;10.03;7.87;;;5.80;99.90;;;;;;4985886;28;20242;-85
2021/03/09 02:39:34;;;;;;;13.40;7.90;;;5.90;99.90;;;;;;4987323;28;20711;-86
2021/03/09 02:42:03;;;;;;;10.57;8.10;;;5.90;99.90;;;;;;4972479;28;20196;-86
2021/03/09 02:44:31;;;;;;;12.17;8.60;;;5.90;99.90;;;;;;4990724;28;20211;-85
2021/03/09 02:46:58;;;;;;;16.30;10.60;;;5.90;99.90;;;;;;4989920;28;20270;-85
2021/03/09 02:49:27;;;;;;;19.07;9.27;;;6.00;99.90;;;;;;4989103;28;20693;-85
2021/03/09 02:51:53;;;;;;;10.10;9.00;;;6.00;99.90;;;;;;4992688;28;20241;-85
2021/03/09 02:54:22;;;;;;;11.43;9.40;;;6.00;99.90;;;;;;4967367;28;21082;-86
2021/03/09 02:56:49;;;;;;;15.60;9.07;;;6.00;99.90;;;;;;4992921;28;20224;-86
2021/03/09 02:59:17;;;;;;;14.17;8.93;;;6.00;99.90;;;;;;4975909;28;20227;-87
2021/03/09 03:01:46;;;;;;;18.53;9.00;;;6.10;99.90;;;;;;4967481;28;20248;-87
2021/03/09 03:04:15;;;;;;;14.00;8.17;;;6.10;99.90;;;;;;4981006;28;20242;-87
2021/03/09 03:06:44;;;;;;;15.80;10.43;;;6.10;99.90;;;;;;4987676;28;20223;-85
2021/03/09 03:09:11;;;;;;;14.33;9.33;;;6.10;99.90;;;;;;4989501;28;20183;-86
2021/03/09 03:11:40;;;;;;;16.83;10.50;;;6.10;99.90;;;;;;4997985;28;20323;-86
2021/03/09 03:14:07;;;;;;;18.67;9.17;;;6.10;99.90;;;;;;4973011;28;20300;-87
2021/03/09 03:16:36;;;;;;;14.10;11.23;;;6.20;99.90;;;;;;4982816;28;20232;-87
2021/03/09 03:19:04;;;;;;;13.23;9.90;;;6.20;99.90;;;;;;5000061;28;20219;-87
2021/03/09 03:21:33;;;;;;;14.97;7.53;;;6.20;99.90;;;;;;4995410;28;20238;-87
2021/03/09 03:24:04;;;;;;;17.93;12.00;;;6.20;99.90;;;;;;4955276;28;20244;-87
2021/03/09 03:26:32;;;;;;;13.43;6.93;;;6.20;99.90;;;;;;4970143;28;20290;-87
2021/03/09 03:28:59;;;;;;;21.10;6.50;;;6.20;99.90;;;;;;4987144;28;20255;-87
2021/03/09 03:31:25;;;;;;;23.53;9.97;;;6.10;99.90;;;;;;4962308;28;20278;-87
2021/03/09 03:33:52;;;;;;;16.03;10.60;;;6.10;99.90;;;;;;4959511;28;20286;-87
2021/03/09 03:36:18;;;;;;;18.30;10.00;;;6.10;99.90;;;;;;4976120;28;20318;-85
2021/03/09 03:38:43;;;;;;;12.07;9.80;;;6.20;99.90;;;;;;4975856;28;20243;-85
2021/03/09 03:41:11;;;;;;;18.57;7.50;;;6.10;99.90;;;;;;4973938;28;20350;-85
2021/03/09 03:43:38;;;;;;;14.63;8.67;;;6.10;99.90;;;;;;4989238;28;20239;-85
2021/03/09 03:46:05;;;;;;;9.93;6.80;;;6.20;99.90;;;;;;4996245;28;20231;-85
2021/03/09 03:48:36;;;;;;;33.23;12.47;;;6.10;99.90;;;;;;4996786;28;20184;-85
2021/03/09 03:51:05;;;;;;;16.90;8.77;;;6.10;99.90;;;;;;5000061;28;20191;-86
2021/03/09 03:53:41;;;;;;;7.23;6.57;;;6.10;99.90;;;;;;4997102;28;20302;-85
2021/03/09 03:56:28;;;;;;;10.87;5.27;;;6.10;99.90;;;;;;4981322;28;20723;-87
2021/03/09 03:59:03;;;;;;;17.93;7.63;;;6.10;99.90;;;;;;4991399;28;20216;-87
2021/03/09 04:01:31;;;;;;;17.33;9.40;;;6.10;99.90;;;;;;4981900;28;20274;-86
2021/03/09 04:03:58;;;;;;;14.10;7.83;;;6.00;99.90;;;;;;4969714;28;20228;-86
2021/03/09 04:06:28;;;;;;;12.20;5.73;;;6.00;99.90;;;;;;4970363;28;20189;-85
2021/03/09 04:08:59;;;;;;;18.47;5.93;;;6.00;99.90;;;;;;4952515;28;20200;-85
2021/03/09 04:11:26;;;;;;;15.73;9.27;;;6.00;99.90;;;;;;4982243;28;20218;-86
2021/03/09 04:13:52;;;;;;;25.40;7.37;;;6.00;99.90;;;;;;4973640;28;20227;-85
2021/03/09 04:16:19;;;;;;;7.20;6.33;;;6.00;99.90;;;;;;4989178;28;20232;-85
2021/03/09 04:18:47;;;;;;;9.23;5.77;;;6.00;99.90;;;;;;4973982;28;20230;-85
2021/03/09 04:21:14;;;;;;;10.93;6.77;;;6.00;99.90;;;;;;4951898;28;20701;-85
2021/03/09 04:23:40;;;;;;;11.83;7.33;;;6.00;99.90;;;;;;4972559;28;20247;-86
2021/03/09 04:26:07;;;;;;;11.90;7.27;;;6.00;99.90;;;;;;4974784;28;20270;-86
2021/03/09 04:28:33;;;;;;;5.27;4.73;;;6.00;99.90;;;;;;4990767;28;20219;-86
2021/03/09 04:31:00;;;;;;;9.90;4.37;;;5.90;99.90;;;;;;4987787;28;20233;-85
2021/03/09 04:33:28;;;;;;;10.73;6.57;;;5.90;99.90;;;;;;4990449;28;20267;-86
2021/03/09 04:35:57;;;;;;;4.50;4.10;;;5.90;99.90;;;;;;4975510;28;20913;-86
2021/03/09 04:38:25;;;;;;;4.40;2.67;;;5.90;99.90;;;;;;4985962;28;20223;-85
2021/03/09 04:40:51;;;;;;;13.67;3.27;;;5.90;99.90;;;;;;4991308;28;20227;-85
2021/03/09 04:43:18;;;;;;;8.83;5.70;;;5.90;99.90;;;;;;4972568;28;20223;-86
2021/03/09 04:45:44;;;;;;;5.77;5.17;;;5.80;99.90;;;;;;4973769;28;20246;-85
2021/03/09 04:48:10;;;;;;;5.93;3.60;;;5.80;99.90;;;;;;4955733;28;20657;-84
2021/03/09 04:50:37;;;;;;;8.97;5.37;;;5.80;99.90;;;;;;4956127;28;20224;-87
2021/03/09 04:53:05;;;;;;;9.10;6.13;;;5.80;99.90;;;;;;4973443;28;20220;-87
2021/03/09 04:55:32;;;;;;;5.77;4.53;;;5.80;99.90;;;;;;4984720;28;20229;-86
2021/03/09 04:57:58;;;;;;;12.83;3.33;;;5.90;99.90;;;;;;4976386;28;21037;-84
2021/03/09 05:00:25;;;;;;;4.10;3.57;;;5.90;99.90;;;;;;4976631;28;20235;-87
2021/03/09 05:02:52;;;;;;;7.10;4.43;;;5.90;99.90;;;;;;4979451;28;20187;-87
2021/03/09 05:05:19;;;;;;;8.27;4.90;;;5.80;99.90;;;;;;4977381;28;20803;-86
2021/03/09 05:07:46;;;;;;;8.90;5.90;;;5.80;99.90;;;;;;4961216;28;20215;-85
2021/03/09 05:10:13;;;;;;;9.70;3.70;;;5.80;99.90;;;;;;4994652;28;20212;-86
2021/03/09 05:12:44;;;;;;;10.97;5.03;;;5.80;99.90;;;;;;4986319;28;20228;-86
2021/03/09 05:15:10;;;;;;;6.47;4.07;;;5.80;99.90;;;;;;4962668;28;20216;-84
2021/03/09 05:17:36;;;;;;;8.33;3.73;;;5.80;99.90;;;;;;4969976;28;20219;-87
2021/03/09 05:20:08;;;;;;;9.00;6.63;;;5.80;99.90;;;;;;4991357;28;20227;-87
2021/03/09 05:22:34;;;;;;;10.07;4.70;;;5.80;99.90;;;;;;4994538;28;20984;-87
2021/03/09 05:25:00;;;;;;;10.47;3.63;;;5.80;99.90;;;;;;4993777;28;20219;-85
2021/03/09 05:27:26;;;;;;;6.23;3.10;;;5.80;99.90;;;;;;4993689;28;20175;-87
2021/03/09 05:29:52;;;;;;;6.63;4.30;;;5.80;99.90;;;;;;4992690;28;20204;-85
2021/03/09 05:32:18;;;;;;;7.37;4.17;;;5.70;99.90;;;;;;4993466;28;20223;-84
2021/03/09 05:34:44;;;;;;;7.50;3.60;;;5.70;99.90;;;;;;4975164;28;20626;-87
2021/03/09 05:37:10;;;;;;;6.27;3.60;;;5.80;99.90;;;;;;4993637;28;20222;-86
2021/03/09 05:39:37;;;;;;;12.20;5.33;;;5.80;99.90;;;;;;4970250;28;20196;-87
2021/03/09 05:42:04;;;;;;;6.83;3.90;;;5.70;99.90;;;;;;4972044;28;20712;-86
2021/03/09 05:44:32;;;;;;;9.37;6.33;;;5.70;99.90;;;;;;4977388;28;20545;-86
2021/03/09 05:47:01;;;;;;;12.07;3.33;;;5.70;99.90;;;;;;4976251;28;20238;-85
2021/03/09 05:49:26;;;;;;;4.83;3.27;;;5.70;99.90;;;;;;4981993;28;20322;-85
2021/03/09 05:51:53;;;;;;;8.03;6.07;;;5.70;99.90;;;;;;4969404;28;20733;-87
2021/03/09 05:54:21;;;;;;;6.90;3.80;;;5.70;99.90;;;;;;4980091;28;20192;-86
2021/03/09 05:56:47;;;;;;;12.40;3.90;;;5.70;99.90;;;;;;4987137;28;20245;-85
2021/03/09 05:59:13;;;;;;;11.37;6.10;;;5.70;99.90;;;;;;4959134;28;20424;-85
2021/03/09 06:01:39;;;;;;;6.77;3.93;;;5.70;99.90;;;;;;4981988;28;20349;-85
2021/03/09 06:04:06;;;;;;;5.53;4.40;;;5.70;99.90;;;;;;5001054;28;20683;-85
2021/03/09 06:06:32;;;;;;;9.03;3.70;;;5.70;99.90;;;;;;4993342;28;20311;-85
2021/03/09 06:08:59;;;;;;;13.43;4.10;;;5.70;99.90;;;;;;4959218;28;20744;-86
2021/03/09 06:11:24;;;;;;;11.77;6.00;;;5.70;99.90;;;;;;4982835;28;20215;-85
2021/03/09 06:13:50;;;;;;;4.67;3.73;;;5.70;99.90;;;;;;4984850;28;20226;-84
2021/03/09 06:16:16;;;;;;;8.07;5.20;;;5.70;99.90;;;;;;4983912;28;20227;-84
2021/03/09 06:18:56;;;;;;;8.60;3.23;;;5.70;99.90;;;;;;4982662;28;20227;-84
2021/03/09 06:21:23;;;;;;;9.00;5.53;;;5.70;99.90;;;;;;4983701;28;20190;-84
2021/03/09 06:23:49;;;;;;;6.90;3.53;;;5.70;99.90;;;;;;4963233;28;20793;-85
2021/03/09 06:26:44;;;;;;;8.77;5.47;;;5.80;99.90;;;;;;4983080;28;20684;-85
2021/03/09 06:29:13;;;;;;;10.27;6.67;;;5.70;99.90;;;;;;4960920;28;20222;-84
2021/03/09 06:31:41;;;;;;;12.87;6.07;;;5.80;99.90;;;;;;4996824;28;20321;-86
2021/03/09 06:34:27;;;;;;;6.53;5.73;;;5.80;99.90;;;;;;4987514;28;20330;-85
2021/03/09 06:37:10;;;;;;;6.73;6.07;;;5.70;99.90;;;;;;4976831;28;20293;-85
2021/03/09 06:40:06;;;;;;;9.13;8.10;;;5.80;99.90;;;;;;5000032;28;20990;-85
2021/03/09 06:42:32;;;;;;;15.60;7.80;;;5.80;99.90;;;;;;4998974;28;20649;-87
2021/03/09 06:45:15;;;;;;;9.90;5.50;;;5.80;99.90;;;;;;4997974;28;20326;-86
2021/03/09 06:47:43;;;;;;;15.13;6.70;;;5.80;99.90;;;;;;4979477;28;20222;-85
2021/03/09 06:50:17;;;;;;;14.40;5.70;;;5.80;99.90;;;;;;4980365;28;20330;-85
2021/03/09 06:52:44;;;;;;;7.97;4.47;;;5.80;99.90;;;;;;4997816;28;20247;-85
2021/03/09 06:55:13;;;;;;;7.33;4.23;;;5.80;99.90;;;;;;4975506;28;20255;-86
2021/03/09 06:57:40;;;;;;;8.10;6.03;;;5.80;99.90;;;;;;4966210;28;20345;-85
2021/03/09 07:00:10;;;;;;;9.17;4.87;;;5.80;99.90;;;;;;4991223;28;20335;-85
2021/03/09 07:02:37;;;;;;;4.10;1.77;;;5.80;99.90;;;;;;4978293;28;20244;-85
2021/03/09 07:05:06;;;;;;;13.77;5.33;;;5.80;99.90;;;;;;4957669;28;20541;-87
2021/03/09 07:07:34;;;;;;;8.63;4.57;;;5.80;99.90;;;;;;4967202;28;20228;-85
2021/03/09 07:10:08;;;;;;;3.77;3.17;;;5.80;99.90;;;;;;4961809;28;20220;-86
2021/03/09 07:12:35;;;;;;;7.73;5.47;;;5.80;99.90;;;;;;4969418;28;20291;-86
2021/03/09 07:15:02;;;;;;;7.27;4.03;;;5.80;99.90;;;;;;4976270;28;20188;-86
2021/03/09 07:17:30;;;;;;;7.33;4.70;;;5.80;99.90;;;;;;4956297;28;20219;-87
2021/03/09 07:19:56;;;;;;;5.93;3.60;;;5.80;99.90;;;;;;4993545;28;20331;-86
2021/03/09 07:22:23;;;;;;;9.20;6.03;;;5.80;99.90;;;;;;4994296;28;20212;-86
2021/03/09 07:25:06;;;;;;;13.33;5.27;;;5.90;99.90;;;;;;4991890;28;20222;-86
2021/03/09 07:27:43;;;;;;;15.17;5.17;;;5.90;99.90;;;;;;4993361;28;20183;-88
2021/03/09 07:30:13;;;;;;;12.57;3.30;;;5.80;99.90;;;;;;4992604;28;20180;-86
2021/03/09 07:32:41;;;;;;;7.33;5.03;;;5.80;99.90;;;;;;4997315;28;20215;-86
2021/03/09 07:35:08;;;;;;;6.70;3.50;;;5.90;99.90;;;;;;4994773;28;20226;-86
2021/03/09 07:37:40;;;;;;;5.33;3.57;;;5.90;99.90;;;;;;4980374;28;20247;-84
2021/03/09 07:40:14;;;;;;;6.67;5.63;;;5.80;99.90;;;;;;4951186;28;20303;-85
2021/03/09 07:42:40;;;;;;;10.93;5.63;;;5.90;99.90;;;;;;4960663;28;20281;-85
2021/03/09 07:45:14;;;;;;;10.70;5.67;;;5.90;99.90;;;;;;4962649;28;20188;-85
2021/03/09 07:47:55;;;;;;;8.73;5.23;;;6.00;99.90;;;;;;4994334;28;20234;-89
2021/03/09 07:50:23;;;;;;;12.47;7.43;;;6.00;99.90;;;;;;4975104;28;20241;-89
2021/03/09 07:52:58;;;;;;;14.47;6.60;;;6.00;99.90;;;;;;4982688;28;20220;-88
2021/03/09 07:55:27;;;;;;;9.00;6.10;;;6.00;99.90;;;;;;4989018;28;21290;-89
2021/03/09 07:58:26;;;;;;;2.47;2.30;;;6.00;99.90;;;;;;4987652;28;20315;-90
2021/03/09 08:01:01;;;;;;;8.07;4.90;;;6.00;99.90;;;;;;4984141;28;20700;-88
2021/03/09 08:03:30;;;;;;;14.83;5.73;;;5.90;99.90;;;;;;4971530;28;20247;-88
2021/03/09 08:06:11;;;;;;;3.30;1.60;;;6.00;99.90;;;;;;4954363;28;20200;-89
2021/03/09 08:08:50;;;;;;;8.10;5.77;;;5.90;99.90;;;;;;4954772;28;20215;-89
2021/03/09 08:11:19;;;;;;;11.40;5.80;;;5.90;99.90;;;;;;4975190;28;20331;-88
2021/03/09 08:14:03;;;;;;;6.10;4.73;;;6.00;99.90;;;;;;4993153;28;20239;-89
2021/03/09 08:16:34;;;;;;;5.20;2.93;;;6.00;99.90;;;;;;4978160;28;20258;-87
2021/03/09 08:19:05;;;;;;;8.97;4.93;;;5.90;99.90;;;;;;4984258;28;20228;-90
2021/03/09 08:21:48;;;;;;;9.13;4.73;;;5.90;99.90;;;;;;4967156;28;20184;-87
2021/03/09 08:24:14;;;;;;;5.30;4.77;;;5.90;99.90;;;;;;4981506;28;20194;-89
2021/03/09 08:26:40;;;;;;;10.10;7.83;;;5.90;99.90;;;;;;4974484;28;20231;-88
2021/03/09 08:29:28;;;;;;;10.07;5.90;;;6.00;99.90;;;;;;4961910;28;21026;-87
2021/03/09 08:32:30;;;;;;;11.53;5.07;;;6.00;99.90;;;;;;4972365;28;20342;-88
2021/03/09 08:35:14;;;;;;;10.10;6.30;;;5.90;99.90;;;;;;4991984;28;20277;-87
2021/03/09 08:37:44;;;;;;;10.20;9.23;;;5.90;99.90;;;;;;4987867;28;20215;-87
2021/03/09 08:40:15;;;;;;;11.57;7.07;;;6.00;99.90;;;;;;4958712;28;21196;-90
2021/03/09 08:43:02;;;;;;;8.93;6.50;;;6.00;99.90;;;;;;4959903;28;20235;-87
2021/03/09 08:45:39;;;;;;;10.10;7.30;;;6.00;99.90;;;;;;4991063;28;20191;-91
2021/03/09 08:48:06;;;;;;;10.07;6.37;;;6.00;99.90;;;;;;4979074;28;20315;-87
2021/03/09 08:50:46;;;;;;;9.07;5.57;;;6.00;99.90;;;;;;4948227;28;20238;-87
2021/03/09 08:53:33;;;;;;;6.77;6.23;;;6.00;99.90;;;;;;4980017;28;20223;-89
2021/03/09 08:56:06;;;;;;;12.27;8.27;;;6.00;99.90;;;;;;4970480;28;20260;-88
2021/03/09 08:58:33;;;;;;;15.27;7.97;;;6.00;99.90;;;;;;4969143;28;20298;-88
2021/03/09 09:00:59;;;;;;;14.50;8.70;;;6.10;99.90;;;;;;4977292;28;20231;-88
2021/03/09 09:03:36;;;;;;;10.70;6.30;;;6.00;99.90;;;;;;4979251;28;20254;-89
2021/03/09 09:06:03;;;;;;;10.00;9.03;;;6.10;99.90;;;;;;4981126;28;21118;-88
2021/03/09 09:08:30;;;;;;;10.97;8.43;;;6.00;99.90;;;;;;4996554;28;20299;-88
2021/03/09 09:10:57;;;;;;;8.07;5.43;;;6.00;99.90;;;;;;4998234;28;20231;-87
2021/03/09 09:13:33;;;;;;;15.67;8.77;;;6.00;99.90;;;;;;4976238;28;20251;-88
2021/03/09 09:16:00;;;;;;;14.77;6.97;;;6.10;99.90;;;;;;4995686;28;20329;-87
2021/03/09 09:18:27;;;;;;;12.37;6.97;;;6.20;99.90;;;;;;4977175;28;20191;-89
2021/03/09 09:20:53;;;;;;;15.90;7.57;;;6.20;99.90;;;;;;4999617;28;20314;-87
2021/03/09 09:23:21;;;;;;;9.67;7.10;;;6.20;99.90;;;;;;4965063;28;20278;-89
2021/03/09 09:25:52;;;;;;;12.50;9.27;;;6.20;99.90;;;;;;4997304;28;20227;-88
2021/03/09 09:28:33;;;;;;;10.93;7.10;;;6.10;99.90;;;;;;4963882;28;20687;-89
2021/03/09 09:31:21;;;;;;;11.37;8.23;;;6.20;99.90;;;;;;4989301;28;20322;-90
2021/03/09 09:33:54;;;;;;;12.07;7.17;;;6.20;99.90;;;;;;4992356;28;20273;-87
2021/03/09 09:36:22;;;;;;;11.00;6.93;;;6.30;99.90;;;;;;4998407;28;20603;-86
2021/03/09 09:38:52;;;;;;;10.30;6.50;;;6.20;99.90;;;;;;5000993;28;20192;-88
2021/03/09 09:41:20;;;;;;;8.50;7.60;;;6.20;99.90;;;;;;4991075;28;20211;-89
2021/03/09 09:43:45;;;;;;;6.53;5.90;;;6.00;99.90;;;;;;4992939;28;21289;-89
2021/03/09 09:46:24;;;;;;;11.50;6.30;;;6.00;99.90;;;;;;4962763;28;20244;-87
2021/03/09 09:48:52;;;;;;;9.67;5.57;;;6.00;99.90;;;;;;4993163;28;20219;-85
2021/03/09 09:51:23;;;;;;;10.27;4.50;;;6.00;99.90;;;;;;4977601;28;20480;-89
2021/03/09 09:53:50;;;;;;;11.80;6.70;;;6.00;99.90;;;;;;4992147;28;20218;-89
2021/03/09 09:56:16;;;;;;;6.63;5.40;;;5.90;99.90;;;;;;4969171;28;20254;-90
2021/03/09 09:58:45;;;;;;;9.13;6.13;;;6.00;99.90;;;;;;4993947;28;20306;-88
2021/03/09 10:01:13;;;;;;;6.80;5.30;;;6.10;99.90;;;;;;4992193;28;20346;-90
2021/03/09 10:03:52;;;;;;;18.17;5.83;;;6.10;99.90;;;;;;4988828;28;22017;-88
2021/03/09 10:06:23;;;;;;;7.17;5.93;;;6.10;99.90;;;;;;4997061;28;20183;-88
2021/03/09 10:08:49;;;;;;;9.60;7.07;;;6.00;99.90;;;;;;4957692;28;20219;-89
2021/03/09 10:11:15;;;;;;;8.47;3.97;;;6.00;99.90;;;;;;4973600;28;20262;-89
2021/03/09 10:13:41;;;;;;;8.33;4.10;;;6.00;99.90;;;;;;4972813;28;20231;-88
2021/03/09 10:16:07;;;;;;;5.33;4.80;;;5.90;99.90;;;;;;4981416;28;21025;-88
2021/03/09 10:18:35;;;;;;;7.27;4.13;;;5.70;99.90;;;;;;4979755;28;20206;-88
2021/03/09 10:21:04;;;;;;;7.37;4.17;;;5.80;99.90;;;;;;4998192;28;20222;-86
2021/03/09 10:23:30;;;;;;;4.03;3.27;;;5.60;99.90;;;;;;4999066;28;20300;-88
2021/03/09 10:26:02;;;;;;;7.77;5.07;;;5.70;99.90;;;;;;4998167;28;20355;-89
2021/03/09 10:28:28;;;;;;;8.17;5.03;;;5.80;99.90;;;;;;4980560;28;20226;-88
2021/03/09 10:30:54;;;;;;;7.67;4.17;;;5.80;99.90;;;;;;4987546;28;20227;-88
2021/03/09 10:33:20;;;;;;;4.23;3.77;;;5.80;99.90;;;;;;4973224;28;20202;-88
2021/03/09 10:36:19;;;;;;;14.93;5.33;;;5.90;99.90;;;;;;4963118;28;20212;-88
2021/03/09 10:38:44;;;;;;;4.63;3.37;;;5.90;99.90;;;;;;4938529;28;20234;-89
2021/03/09 10:41:25;;;;;;;4.70;3.17;;;5.70;99.90;;;;;;4973313;28;20211;-88
2021/03/09 10:43:51;;;;;;;9.27;4.13;;;5.80;99.90;;;;;;4973039;28;20216;-88
2021/03/09 10:46:18;;;;;;;3.87;3.50;;;5.90;99.90;;;;;;4959534;28;20742;-88
2021/03/09 10:48:44;;;;;;;5.23;4.23;;;6.00;99.90;;;;;;4994679;28;20215;-88
2021/03/09 10:51:20;;;;;;;7.27;4.67;;;6.00;99.90;;;;;;4970554;28;20993;-88
2021/03/09 10:53:46;;;;;;;4.13;3.63;;;6.10;99.90;;;;;;4990756;28;20224;-89
2021/03/09 10:56:12;;;;;;;6.27;3.53;;;6.10;99.90;;;;;;4972196;28;20281;-88
2021/03/09 10:58:39;;;;;;;4.27;2.53;;;5.80;99.90;;;;;;4998815;28;20219;-89
2021/03/09 11:01:05;;;;;;;7.23;3.60;;;5.80;99.90;;;;;;4990365;28;20236;-88
2021/03/09 11:03:30;;;;;;;4.53;4.00;;;5.90;99.90;;;;;;4973855;28;20528;-88
2021/03/09 11:05:56;;;;;;;4.70;2.80;;;5.90;99.90;;;;;;4979861;28;20653;-87
2021/03/09 11:08:23;;;;;;;4.63;3.03;;;5.80;99.90;;;;;;4959748;28;20225;-88
2021/03/09 11:10:51;;;;;;;7.47;4.03;;;5.70;99.90;;;;;;4963116;28;20231;-89
2021/03/09 11:13:17;;;;;;;5.23;3.17;;;5.80;99.90;;;;;;4975262;28;20216;-86
2021/03/09 11:15:43;;;;;;;4.00;2.83;;;5.90;99.90;;;;;;4976387;28;20599;-91
2021/03/09 11:18:09;;;;;;;3.63;3.13;;;6.00;99.90;;;;;;4972421;28;20188;-87
2021/03/09 11:20:35;;;;;;;7.13;4.13;;;6.10;99.90;;;;;;4989194;28;20219;-90
2021/03/09 11:23:01;;;;;;;7.37;4.50;;;6.10;99.90;;;;;;4981712;28;20226;-88
2021/03/09 11:25:27;;;;;;;4.43;4.00;;;6.10;99.90;;;;;;4997868;28;20226;-91
2021/03/09 11:27:53;;;;;;;8.00;4.80;;;6.20;99.90;;;;;;4975470;28;20219;-90
2021/03/09 11:30:20;;;;;;;5.37;4.33;;;6.20;99.90;;;;;;4962431;28;20265;-88
2021/03/09 11:32:46;;;;;;;4.20;3.67;;;6.10;99.90;;;;;;4991099;28;20286;-91
2021/03/09 11:35:12;;;;;;;7.17;5.57;;;6.00;99.90;;;;;;4972439;28;20245;-90
2021/03/09 11:37:38;;;;;;;4.73;4.30;;;5.80;99.90;;;;;;4965038;28;20254;-91
2021/03/09 11:40:06;;;;;;;7.53;5.43;;;5.90;99.90;;;;;;4984135;28;20768;-90
2021/03/09 11:42:33;;;;;;;7.17;4.47;;;5.90;99.90;;;;;;4944765;28;20658;-90
2021/03/09 11:44:59;;;;;;;4.80;4.40;;;5.90;99.90;;;;;;4949240;28;20201;-89
2021/03/09 11:47:25;;;;;;;4.00;3.27;;;5.90;99.90;;;;;;4977792;28;20310;-91
2021/03/09 11:49:51;;;;;;;10.87;4.17;;;5.80;99.90;;;;;;4998423;28;20235;-90
2021/03/09 11:52:17;;;;;;;6.20;4.07;;;5.70;99.90;;;;;;4996758;28;20318;-90
2021/03/09 11:54:42;;;;;;;6.47;3.93;;;5.70;99.90;;;;;;4986549;28;20220;-88
2021/03/09 11:57:08;;;;;;;3.20;2.63;;;5.80;99.90;;;;;;4978059;28;20253;-87
2021/03/09 11:59:34;;;;;;;2.87;2.67;;;5.60;99.90;;;;;;4972995;28;20582;-88
2021/03/09 12:02:00;;;;;;;8.43;5.17;;;5.30;99.90;;;;;;4980400;28;20566;-87
2021/03/09 12:04:26;;;;;;;6.73;5.93;;;5.20;99.90;;;;;;4974799;28;20227;-87
2021/03/09 12:06:51;;;;;;;7.63;5.80;;;5.40;99.90;;;;;;4972551;28;20222;-87
2021/03/09 12:09:17;;;;;;;12.07;5.50;;;5.60;99.90;;;;;;4992206;28;20194;-87
2021/03/09 12:11:43;;;;;;;7.17;5.80;;;5.60;99.90;;;;;;4991586;28;20424;-88
2021/03/09 12:14:09;;;;;;;5.33;3.67;;;5.60;99.90;;;;;;4992444;28;21156;-87
2021/03/09 12:16:35;;;;;;;9.43;6.70;;;5.70;99.90;;;;;;4968326;28;20290;-86
2021/03/09 12:19:01;;;;;;;7.83;3.90;;;5.70;99.90;;;;;;4972821;28;20283;-86
2021/03/09 12:21:27;;;;;;;5.07;4.57;;;5.80;99.90;;;;;;4939151;28;20243;-87
2021/03/09 12:23:52;;;;;;;7.43;3.77;;;5.70;99.90;;;;;;4973945;28;20204;-87
2021/03/09 12:26:18;;;;;;;5.27;3.27;;;5.80;99.90;;;;;;4971202;28;20227;-86
2021/03/09 12:28:44;;;;;;;5.17;3.43;;;5.80;99.90;;;;;;4971175;28;20222;-87
2021/03/09 12:31:10;;;;;;;4.40;3.60;;;5.90;99.90;;;;;;4971136;28;20211;-87
2021/03/09 12:33:35;;;;;;;6.23;3.93;;;5.90;99.90;;;;;;4995085;28;20187;-86
2021/03/09 12:36:02;;;;;;;4.83;4.43;;;5.90;99.90;;;;;;4990468;28;20708;-87
2021/03/09 12:38:28;;;;;;;5.00;2.90;;;5.80;99.90;;;;;;4972420;28;20307;-87
2021/03/09 12:40:56;;;;;;;4.13;3.57;;;5.80;99.90;;;;;;4973754;28;20525;-87
2021/03/09 12:43:21;;;;;;;4.33;3.90;;;5.80;99.90;;;;;;4998172;28;20221;-87
2021/03/09 12:45:47;;;;;;;7.43;4.30;;;5.90;99.90;;;;;;4991654;28;20226;-88
2021/03/09 12:48:13;;;;;;;5.73;5.10;;;5.70;99.90;;;;;;4975842;28;21873;-87
2021/03/09 12:50:38;;;;;;;4.20;2.80;;;5.90;99.90;;;;;;4981652;28;20237;-87
2021/03/09 12:53:04;;;;;;;4.07;3.40;;;5.80;99.90;;;;;;4976380;28;20391;-87
2021/03/09 12:55:33;;;;;;;3.27;2.93;;;5.70;99.90;;;;;;4987230;28;20588;-86
2021/03/09 12:57:58;;;;;;;3.00;2.77;;;5.80;99.90;;;;;;4974018;28;20220;-86
2021/03/09 13:00:24;;;;;;;3.97;3.60;;;6.00;99.90;;;;;;4936886;28;20642;-85
2021/03/09 13:02:50;;;;;;;3.67;3.37;;;5.90;99.90;;;;;;4950373;28;20230;-83